sensor_id;sensor_type;location;lat;lon;timestamp;P1;durP1;ratioP1;P2;durP2;ratioP2
73919;SDS011;62266;53.348;-1.496;2023-05-10T00:00:16;9.07;;;2.60;;
73919;SDS011;62266;53.348;-1.496;2023-05-10T00:03:00;7.20;;;2.33;;
73919;SDS011;62266;53.348;-1.496;2023-05-10T00:05:44;7.47;;;2.60;;
73919;SDS011;62266;53.348;-1.496;2023-05-10T00:08:29;8.30;;;2.00;;
73919;SDS011;62266;53.348;-1.496;2023-05-10T00:11:13;5.72;;;2.00;;
73919;SDS011;62266;53.348;-1.496;2023-05-10T00:13:57;5.95;;;1.83;;
73919;SDS011;62266;53.348;-1.496;2023-05-10T00:16:41;8.93;;;1.80;;
73919;SDS011;62266;53.348;-1.496;2023-05-10T00:19:25;6.38;;;1.75;;
73919;SDS011;62266;53.348;-1.496;2023-05-10T00:22:09;7.10;;;1.75;;
73919;SDS011;62266;53.348;-1.496;2023-05-10T00:24:54;8.23;;;2.10;;
73919;SDS011;62266;53.348;-1.496;2023-05-10T00:27:37;6.75;;;2.00;;
73919;SDS011;62266;53.348;-1.496;2023-05-10T00:30:22;6.80;;;1.70;;
73919;SDS011;62266;53.348;-1.496;2023-05-10T00:33:05;8.75;;;1.77;;
73919;SDS011;62266;53.348;-1.496;2023-05-10T00:35:50;6.80;;;2.13;;
73919;SDS011;62266;53.348;-1.496;2023-05-10T00:38:34;7.00;;;1.92;;
73919;SDS011;62266;53.348;-1.496;2023-05-10T00:41:18;6.80;;;2.33;;
73919;SDS011;62266;53.348;-1.496;2023-05-10T00:44:02;7.63;;;2.23;;
73919;SDS011;62266;53.348;-1.496;2023-05-10T00:46:46;7.05;;;2.15;;
73919;SDS011;62266;53.348;-1.496;2023-05-10T00:49:32;8.90;;;2.10;;
73919;SDS011;62266;53.348;-1.496;2023-05-10T00:52:16;6.97;;;2.22;;
73919;SDS011;62266;53.348;-1.496;2023-05-10T00:55:00;10.25;;;2.05;;
73919;SDS011;62266;53.348;-1.496;2023-05-10T00:57:44;9.10;;;2.07;;
73919;SDS011;62266;53.348;-1.496;2023-05-10T01:00:29;10.65;;;2.20;;
73919;SDS011;62266;53.348;-1.496;2023-05-10T01:03:14;10.70;;;2.30;;
73919;SDS011;62266;53.348;-1.496;2023-05-10T01:05:58;8.70;;;2.17;;
73919;SDS011;62266;53.348;-1.496;2023-05-10T01:08:42;8.07;;;2.60;;
73919;SDS011;62266;53.348;-1.496;2023-05-10T01:11:26;9.27;;;2.47;;
73919;SDS011;62266;53.348;-1.496;2023-05-10T01:14:10;7.90;;;2.22;;
73919;SDS011;62266;53.348;-1.496;2023-05-10T01:16:54;6.40;;;2.22;;
73919;SDS011;62266;53.348;-1.496;2023-05-10T01:19:38;7.50;;;2.10;;
73919;SDS011;62266;53.348;-1.496;2023-05-10T01:31:34;6.60;;;2.10;;
73919;SDS011;62266;53.348;-1.496;2023-05-10T01:37:43;7.28;;;2.28;;
73919;SDS011;62266;53.348;-1.496;2023-05-10T01:43:48;7.80;;;1.70;;
73919;SDS011;62266;53.348;-1.496;2023-05-10T01:46:37;5.30;;;1.80;;
73919;SDS011;62266;53.348;-1.496;2023-05-10T01:49:26;6.18;;;1.83;;
73919;SDS011;62266;53.348;-1.496;2023-05-10T01:52:12;8.77;;;1.95;;
73919;SDS011;62266;53.348;-1.496;2023-05-10T01:55:01;7.83;;;2.03;;
73919;SDS011;62266;53.348;-1.496;2023-05-10T01:57:50;10.05;;;2.38;;
73919;SDS011;62266;53.348;-1.496;2023-05-10T02:00:42;8.07;;;1.63;;
73919;SDS011;62266;53.348;-1.496;2023-05-10T02:03:27;7.47;;;1.90;;
73919;SDS011;62266;53.348;-1.496;2023-05-10T02:06:12;8.90;;;2.47;;
73919;SDS011;62266;53.348;-1.496;2023-05-10T02:09:00;9.13;;;2.40;;
73919;SDS011;62266;53.348;-1.496;2023-05-10T02:11:45;9.73;;;2.13;;
73919;SDS011;62266;53.348;-1.496;2023-05-10T02:14:32;6.03;;;1.95;;
73919;SDS011;62266;53.348;-1.496;2023-05-10T02:17:19;10.77;;;2.25;;
73919;SDS011;62266;53.348;-1.496;2023-05-10T02:20:04;8.07;;;2.33;;
73919;SDS011;62266;53.348;-1.496;2023-05-10T02:22:50;15.00;;;3.10;;
73919;SDS011;62266;53.348;-1.496;2023-05-10T02:25:36;9.77;;;2.35;;
73919;SDS011;62266;53.348;-1.496;2023-05-10T02:28:23;12.20;;;3.35;;
73919;SDS011;62266;53.348;-1.496;2023-05-10T02:31:07;9.80;;;2.42;;
73919;SDS011;62266;53.348;-1.496;2023-05-10T02:33:53;10.27;;;3.17;;
73919;SDS011;62266;53.348;-1.496;2023-05-10T02:36:38;9.27;;;2.43;;
73919;SDS011;62266;53.348;-1.496;2023-05-10T02:39:23;9.73;;;3.03;;
73919;SDS011;62266;53.348;-1.496;2023-05-10T02:42:08;7.20;;;2.40;;
73919;SDS011;62266;53.348;-1.496;2023-05-10T02:44:53;12.57;;;3.05;;
73919;SDS011;62266;53.348;-1.496;2023-05-10T02:47:40;9.85;;;2.95;;
73919;SDS011;62266;53.348;-1.496;2023-05-10T02:50:25;7.77;;;2.50;;
73919;SDS011;62266;53.348;-1.496;2023-05-10T02:53:13;8.52;;;2.90;;
73919;SDS011;62266;53.348;-1.496;2023-05-10T02:56:00;10.65;;;3.17;;
73919;SDS011;62266;53.348;-1.496;2023-05-10T02:58:47;11.75;;;3.10;;
73919;SDS011;62266;53.348;-1.496;2023-05-10T03:01:32;15.38;;;3.72;;
73919;SDS011;62266;53.348;-1.496;2023-05-10T03:04:16;9.80;;;3.17;;
73919;SDS011;62266;53.348;-1.496;2023-05-10T03:07:00;13.25;;;3.10;;
73919;SDS011;62266;53.348;-1.496;2023-05-10T03:09:45;9.90;;;3.15;;
73919;SDS011;62266;53.348;-1.496;2023-05-10T03:15:55;8.60;;;2.85;;
73919;SDS011;62266;53.348;-1.496;2023-05-10T03:18:42;7.80;;;3.57;;
73919;SDS011;62266;53.348;-1.496;2023-05-10T03:21:29;8.50;;;3.00;;
73919;SDS011;62266;53.348;-1.496;2023-05-10T03:24:13;13.55;;;3.63;;
73919;SDS011;62266;53.348;-1.496;2023-05-10T03:26:59;6.72;;;2.67;;
73919;SDS011;62266;53.348;-1.496;2023-05-10T03:29:46;10.38;;;3.33;;
73919;SDS011;62266;53.348;-1.496;2023-05-10T03:32:31;8.83;;;3.10;;
73919;SDS011;62266;53.348;-1.496;2023-05-10T03:35:16;7.65;;;2.85;;
73919;SDS011;62266;53.348;-1.496;2023-05-10T03:38:00;10.98;;;4.00;;
73919;SDS011;62266;53.348;-1.496;2023-05-10T03:40:44;11.55;;;3.08;;
73919;SDS011;62266;53.348;-1.496;2023-05-10T03:43:29;6.72;;;2.80;;
73919;SDS011;62266;53.348;-1.496;2023-05-10T03:46:13;10.63;;;3.43;;
73919;SDS011;62266;53.348;-1.496;2023-05-10T03:48:57;12.43;;;3.65;;
73919;SDS011;62266;53.348;-1.496;2023-05-10T03:51:41;11.13;;;3.85;;
73919;SDS011;62266;53.348;-1.496;2023-05-10T03:54:25;13.88;;;3.50;;
73919;SDS011;62266;53.348;-1.496;2023-05-10T03:57:09;8.68;;;3.20;;
73919;SDS011;62266;53.348;-1.496;2023-05-10T03:59:53;11.17;;;3.80;;
73919;SDS011;62266;53.348;-1.496;2023-05-10T04:02:37;11.75;;;3.60;;
73919;SDS011;62266;53.348;-1.496;2023-05-10T04:05:21;11.35;;;3.10;;
73919;SDS011;62266;53.348;-1.496;2023-05-10T04:08:05;11.65;;;3.92;;
73919;SDS011;62266;53.348;-1.496;2023-05-10T04:10:53;8.90;;;3.53;;
73919;SDS011;62266;53.348;-1.496;2023-05-10T04:13:37;12.00;;;3.80;;
73919;SDS011;62266;53.348;-1.496;2023-05-10T04:16:21;8.10;;;3.20;;
73919;SDS011;62266;53.348;-1.496;2023-05-10T04:19:05;6.95;;;3.38;;
73919;SDS011;62266;53.348;-1.496;2023-05-10T04:21:49;10.95;;;3.25;;
73919;SDS011;62266;53.348;-1.496;2023-05-10T04:24:33;8.75;;;3.50;;
73919;SDS011;62266;53.348;-1.496;2023-05-10T04:27:17;13.13;;;3.63;;
73919;SDS011;62266;53.348;-1.496;2023-05-10T04:30:01;10.82;;;3.63;;
73919;SDS011;62266;53.348;-1.496;2023-05-10T04:32:46;14.68;;;3.60;;
73919;SDS011;62266;53.348;-1.496;2023-05-10T04:35:31;10.48;;;4.40;;
73919;SDS011;62266;53.348;-1.496;2023-05-10T04:38:15;9.65;;;4.10;;
73919;SDS011;62266;53.348;-1.496;2023-05-10T04:41:06;15.67;;;3.63;;
73919;SDS011;62266;53.348;-1.496;2023-05-10T04:43:51;8.65;;;3.30;;
73919;SDS011;62266;53.348;-1.496;2023-05-10T04:46:35;7.80;;;3.60;;
73919;SDS011;62266;53.348;-1.496;2023-05-10T04:49:22;11.10;;;3.50;;
73919;SDS011;62266;53.348;-1.496;2023-05-10T04:52:06;10.13;;;3.92;;
73919;SDS011;62266;53.348;-1.496;2023-05-10T04:54:50;10.73;;;3.83;;
73919;SDS011;62266;53.348;-1.496;2023-05-10T04:57:34;12.13;;;4.15;;
73919;SDS011;62266;53.348;-1.496;2023-05-10T05:00:18;8.55;;;3.95;;
73919;SDS011;62266;53.348;-1.496;2023-05-10T05:03:03;8.95;;;3.95;;
73919;SDS011;62266;53.348;-1.496;2023-05-10T05:05:47;10.15;;;4.13;;
73919;SDS011;62266;53.348;-1.496;2023-05-10T05:08:38;12.40;;;4.70;;
73919;SDS011;62266;53.348;-1.496;2023-05-10T05:11:22;10.25;;;3.83;;
73919;SDS011;62266;53.348;-1.496;2023-05-10T05:14:06;10.80;;;3.60;;
73919;SDS011;62266;53.348;-1.496;2023-05-10T05:16:50;10.35;;;4.25;;
73919;SDS011;62266;53.348;-1.496;2023-05-10T05:19:35;10.00;;;4.45;;
73919;SDS011;62266;53.348;-1.496;2023-05-10T05:22:19;11.07;;;3.63;;
73919;SDS011;62266;53.348;-1.496;2023-05-10T05:25:10;8.55;;;3.80;;
73919;SDS011;62266;53.348;-1.496;2023-05-10T05:27:55;14.02;;;4.32;;
73919;SDS011;62266;53.348;-1.496;2023-05-10T05:30:39;11.70;;;4.13;;
73919;SDS011;62266;53.348;-1.496;2023-05-10T05:33:23;8.95;;;3.83;;
73919;SDS011;62266;53.348;-1.496;2023-05-10T05:36:07;12.23;;;4.63;;
73919;SDS011;62266;53.348;-1.496;2023-05-10T05:38:51;12.52;;;4.03;;
73919;SDS011;62266;53.348;-1.496;2023-05-10T05:41:35;9.93;;;4.00;;
73919;SDS011;62266;53.348;-1.496;2023-05-10T05:44:19;7.57;;;3.50;;
73919;SDS011;62266;53.348;-1.496;2023-05-10T05:47:02;9.70;;;4.47;;
73919;SDS011;62266;53.348;-1.496;2023-05-10T05:49:47;11.77;;;4.43;;
73919;SDS011;62266;53.348;-1.496;2023-05-10T05:52:31;15.55;;;4.30;;
73919;SDS011;62266;53.348;-1.496;2023-05-10T05:55:15;10.80;;;4.18;;
73919;SDS011;62266;53.348;-1.496;2023-05-10T05:57:59;10.45;;;4.05;;
73919;SDS011;62266;53.348;-1.496;2023-05-10T06:00:43;10.18;;;4.40;;
73919;SDS011;62266;53.348;-1.496;2023-05-10T06:03:27;11.70;;;4.17;;
73919;SDS011;62266;53.348;-1.496;2023-05-10T06:06:11;9.93;;;4.28;;
73919;SDS011;62266;53.348;-1.496;2023-05-10T06:08:54;10.50;;;4.20;;
73919;SDS011;62266;53.348;-1.496;2023-05-10T06:11:38;14.90;;;4.53;;
73919;SDS011;62266;53.348;-1.496;2023-05-10T06:14:22;6.93;;;3.72;;
73919;SDS011;62266;53.348;-1.496;2023-05-10T06:17:06;9.20;;;3.70;;
73919;SDS011;62266;53.348;-1.496;2023-05-10T06:19:50;9.45;;;3.95;;
73919;SDS011;62266;53.348;-1.496;2023-05-10T06:22:34;8.50;;;3.72;;
73919;SDS011;62266;53.348;-1.496;2023-05-10T06:25:18;8.80;;;3.17;;
73919;SDS011;62266;53.348;-1.496;2023-05-10T06:28:02;12.98;;;3.55;;
73919;SDS011;62266;53.348;-1.496;2023-05-10T06:30:46;8.70;;;3.77;;
73919;SDS011;62266;53.348;-1.496;2023-05-10T06:33:30;7.47;;;2.72;;
73919;SDS011;62266;53.348;-1.496;2023-05-10T06:36:14;6.25;;;2.45;;
73919;SDS011;62266;53.348;-1.496;2023-05-10T06:39:01;6.90;;;2.70;;
73919;SDS011;62266;53.348;-1.496;2023-05-10T06:41:46;5.30;;;3.08;;
73919;SDS011;62266;53.348;-1.496;2023-05-10T06:44:30;5.67;;;3.13;;
73919;SDS011;62266;53.348;-1.496;2023-05-10T06:47:14;5.13;;;2.78;;
73919;SDS011;62266;53.348;-1.496;2023-05-10T06:49:58;6.85;;;2.83;;
73919;SDS011;62266;53.348;-1.496;2023-05-10T06:52:42;8.73;;;2.90;;
73919;SDS011;62266;53.348;-1.496;2023-05-10T06:55:27;5.18;;;2.70;;
73919;SDS011;62266;53.348;-1.496;2023-05-10T06:58:11;6.27;;;2.90;;
73919;SDS011;62266;53.348;-1.496;2023-05-10T07:01:01;8.00;;;2.85;;
73919;SDS011;62266;53.348;-1.496;2023-05-10T07:03:46;7.65;;;2.88;;
73919;SDS011;62266;53.348;-1.496;2023-05-10T07:06:30;6.82;;;3.20;;
73919;SDS011;62266;53.348;-1.496;2023-05-10T07:09:14;4.93;;;2.45;;
73919;SDS011;62266;53.348;-1.496;2023-05-10T07:12:03;5.87;;;2.30;;
73919;SDS011;62266;53.348;-1.496;2023-05-10T07:14:47;5.95;;;2.55;;
73919;SDS011;62266;53.348;-1.496;2023-05-10T07:17:31;4.53;;;2.40;;
73919;SDS011;62266;53.348;-1.496;2023-05-10T07:20:16;5.78;;;2.53;;
73919;SDS011;62266;53.348;-1.496;2023-05-10T07:23:01;4.88;;;2.45;;
73919;SDS011;62266;53.348;-1.496;2023-05-10T07:25:45;3.97;;;2.10;;
73919;SDS011;62266;53.348;-1.496;2023-05-10T07:28:33;6.32;;;2.22;;
73919;SDS011;62266;53.348;-1.496;2023-05-10T07:31:17;8.52;;;2.30;;
73919;SDS011;62266;53.348;-1.496;2023-05-10T07:34:01;7.53;;;2.28;;
73919;SDS011;62266;53.348;-1.496;2023-05-10T07:36:45;9.07;;;2.90;;
73919;SDS011;62266;53.348;-1.496;2023-05-10T07:39:30;6.60;;;2.50;;
73919;SDS011;62266;53.348;-1.496;2023-05-10T07:42:14;5.43;;;2.00;;
73919;SDS011;62266;53.348;-1.496;2023-05-10T07:44:58;8.80;;;2.67;;
73919;SDS011;62266;53.348;-1.496;2023-05-10T07:47:42;6.95;;;2.30;;
73919;SDS011;62266;53.348;-1.496;2023-05-10T07:50:26;4.78;;;2.20;;
73919;SDS011;62266;53.348;-1.496;2023-05-10T07:53:10;4.90;;;2.20;;
73919;SDS011;62266;53.348;-1.496;2023-05-10T07:55:56;6.40;;;2.45;;
73919;SDS011;62266;53.348;-1.496;2023-05-10T07:58:42;4.50;;;2.20;;
73919;SDS011;62266;53.348;-1.496;2023-05-10T08:01:26;5.07;;;2.92;;
73919;SDS011;62266;53.348;-1.496;2023-05-10T08:04:10;5.45;;;2.50;;
73919;SDS011;62266;53.348;-1.496;2023-05-10T08:06:57;4.97;;;2.80;;
73919;SDS011;62266;53.348;-1.496;2023-05-10T08:09:44;7.10;;;2.97;;
73919;SDS011;62266;53.348;-1.496;2023-05-10T08:12:28;8.32;;;4.03;;
73919;SDS011;62266;53.348;-1.496;2023-05-10T08:15:12;10.75;;;4.90;;
73919;SDS011;62266;53.348;-1.496;2023-05-10T08:17:56;6.28;;;3.13;;
73919;SDS011;62266;53.348;-1.496;2023-05-10T08:20:40;9.70;;;3.57;;
73919;SDS011;62266;53.348;-1.496;2023-05-10T08:23:24;9.23;;;3.25;;
73919;SDS011;62266;53.348;-1.496;2023-05-10T08:26:08;9.52;;;4.65;;
73919;SDS011;62266;53.348;-1.496;2023-05-10T08:28:52;8.45;;;4.55;;
73919;SDS011;62266;53.348;-1.496;2023-05-10T08:31:36;9.65;;;4.50;;
73919;SDS011;62266;53.348;-1.496;2023-05-10T08:34:19;8.90;;;3.90;;
73919;SDS011;62266;53.348;-1.496;2023-05-10T08:37:03;7.00;;;3.53;;
73919;SDS011;62266;53.348;-1.496;2023-05-10T08:39:48;7.63;;;3.20;;
73919;SDS011;62266;53.348;-1.496;2023-05-10T08:42:33;7.40;;;2.72;;
73919;SDS011;62266;53.348;-1.496;2023-05-10T08:45:19;5.15;;;3.08;;
73919;SDS011;62266;53.348;-1.496;2023-05-10T08:48:04;4.47;;;2.97;;
73919;SDS011;62266;53.348;-1.496;2023-05-10T08:50:49;6.30;;;2.60;;
73919;SDS011;62266;53.348;-1.496;2023-05-10T08:53:39;5.72;;;2.50;;
73919;SDS011;62266;53.348;-1.496;2023-05-10T08:56:23;5.88;;;2.50;;
73919;SDS011;62266;53.348;-1.496;2023-05-10T08:59:07;5.60;;;2.30;;
73919;SDS011;62266;53.348;-1.496;2023-05-10T09:01:51;5.47;;;2.73;;
73919;SDS011;62266;53.348;-1.496;2023-05-10T09:04:37;8.68;;;3.08;;
73919;SDS011;62266;53.348;-1.496;2023-05-10T09:07:20;3.53;;;1.77;;
73919;SDS011;62266;53.348;-1.496;2023-05-10T09:10:04;3.15;;;1.25;;
73919;SDS011;62266;53.348;-1.496;2023-05-10T09:12:49;2.85;;;1.10;;
73919;SDS011;62266;53.348;-1.496;2023-05-10T09:15:34;2.87;;;1.00;;
73919;SDS011;62266;53.348;-1.496;2023-05-10T09:18:18;2.15;;;0.80;;
73919;SDS011;62266;53.348;-1.496;2023-05-10T09:21:02;3.90;;;1.27;;
73919;SDS011;62266;53.348;-1.496;2023-05-10T09:23:47;2.90;;;0.88;;
73919;SDS011;62266;53.348;-1.496;2023-05-10T09:26:33;2.17;;;1.27;;
73919;SDS011;62266;53.348;-1.496;2023-05-10T09:29:19;4.33;;;1.00;;
73919;SDS011;62266;53.348;-1.496;2023-05-10T09:32:03;3.33;;;1.40;;
73919;SDS011;62266;53.348;-1.496;2023-05-10T09:34:48;4.65;;;1.58;;
73919;SDS011;62266;53.348;-1.496;2023-05-10T09:37:33;4.30;;;1.63;;
73919;SDS011;62266;53.348;-1.496;2023-05-10T09:40:18;4.28;;;2.10;;
73919;SDS011;62266;53.348;-1.496;2023-05-10T09:43:08;6.43;;;1.80;;
73919;SDS011;62266;53.348;-1.496;2023-05-10T09:45:53;3.80;;;2.05;;
73919;SDS011;62266;53.348;-1.496;2023-05-10T09:48:42;5.20;;;2.38;;
73919;SDS011;62266;53.348;-1.496;2023-05-10T09:51:27;4.47;;;2.30;;
73919;SDS011;62266;53.348;-1.496;2023-05-10T09:54:15;4.57;;;2.03;;
73919;SDS011;62266;53.348;-1.496;2023-05-10T09:56:59;5.53;;;1.90;;
73919;SDS011;62266;53.348;-1.496;2023-05-10T09:59:44;3.65;;;1.67;;
73919;SDS011;62266;53.348;-1.496;2023-05-10T10:02:28;4.28;;;2.00;;
73919;SDS011;62266;53.348;-1.496;2023-05-10T10:05:13;3.72;;;1.67;;
73919;SDS011;62266;53.348;-1.496;2023-05-10T10:07:57;2.72;;;1.50;;
73919;SDS011;62266;53.348;-1.496;2023-05-10T10:10:42;5.00;;;1.50;;
73919;SDS011;62266;53.348;-1.496;2023-05-10T10:13:29;2.45;;;1.10;;
73919;SDS011;62266;53.348;-1.496;2023-05-10T10:16:14;1.92;;;1.15;;
73919;SDS011;62266;53.348;-1.496;2023-05-10T10:18:58;2.63;;;1.10;;
73919;SDS011;62266;53.348;-1.496;2023-05-10T10:21:42;2.25;;;1.02;;
73919;SDS011;62266;53.348;-1.496;2023-05-10T10:24:26;3.10;;;1.40;;
73919;SDS011;62266;53.348;-1.496;2023-05-10T10:27:33;2.50;;;1.40;;
73919;SDS011;62266;53.348;-1.496;2023-05-10T10:35:48;3.30;;;1.70;;
73919;SDS011;62266;53.348;-1.496;2023-05-10T10:38:36;3.33;;;1.30;;
73919;SDS011;62266;53.348;-1.496;2023-05-10T10:50:06;4.70;;;1.67;;
73919;SDS011;62266;53.348;-1.496;2023-05-10T10:52:51;4.70;;;1.67;;
73919;SDS011;62266;53.348;-1.496;2023-05-10T10:55:40;3.13;;;1.58;;
73919;SDS011;62266;53.348;-1.496;2023-05-10T10:58:31;2.85;;;1.55;;
73919;SDS011;62266;53.348;-1.496;2023-05-10T11:01:17;5.75;;;2.05;;
73919;SDS011;62266;53.348;-1.496;2023-05-10T11:06:48;4.30;;;1.80;;
73919;SDS011;62266;53.348;-1.496;2023-05-10T11:09:38;2.33;;;1.70;;
73919;SDS011;62266;53.348;-1.496;2023-05-10T11:12:23;4.03;;;1.88;;
73919;SDS011;62266;53.348;-1.496;2023-05-10T11:15:08;2.42;;;1.70;;
73919;SDS011;62266;53.348;-1.496;2023-05-10T11:17:53;2.95;;;1.63;;
73919;SDS011;62266;53.348;-1.496;2023-05-10T11:20:41;3.70;;;1.90;;
73919;SDS011;62266;53.348;-1.496;2023-05-10T11:23:29;5.68;;;1.70;;
73919;SDS011;62266;53.348;-1.496;2023-05-10T11:26:18;2.25;;;1.20;;
73919;SDS011;62266;53.348;-1.496;2023-05-10T11:29:02;3.03;;;1.55;;
73919;SDS011;62266;53.348;-1.496;2023-05-10T11:31:49;3.30;;;1.10;;
73919;SDS011;62266;53.348;-1.496;2023-05-10T11:34:38;2.07;;;0.77;;
73919;SDS011;62266;53.348;-1.496;2023-05-10T11:37:22;2.47;;;0.80;;
73919;SDS011;62266;53.348;-1.496;2023-05-10T11:40:06;2.08;;;1.30;;
73919;SDS011;62266;53.348;-1.496;2023-05-10T11:42:55;1.17;;;0.60;;
73919;SDS011;62266;53.348;-1.496;2023-05-10T11:45:40;1.83;;;0.60;;
73919;SDS011;62266;53.348;-1.496;2023-05-10T11:48:25;2.77;;;0.93;;
73919;SDS011;62266;53.348;-1.496;2023-05-10T11:51:10;2.80;;;1.08;;
73919;SDS011;62266;53.348;-1.496;2023-05-10T11:53:55;2.22;;;1.10;;
73919;SDS011;62266;53.348;-1.496;2023-05-10T11:56:40;2.63;;;1.40;;
73919;SDS011;62266;53.348;-1.496;2023-05-10T11:59:24;4.13;;;1.50;;
73919;SDS011;62266;53.348;-1.496;2023-05-10T12:02:08;2.70;;;1.00;;
73919;SDS011;62266;53.348;-1.496;2023-05-10T12:04:53;4.00;;;1.27;;
73919;SDS011;62266;53.348;-1.496;2023-05-10T12:07:38;2.72;;;0.75;;
73919;SDS011;62266;53.348;-1.496;2023-05-10T12:10:26;3.20;;;0.93;;
73919;SDS011;62266;53.348;-1.496;2023-05-10T12:13:11;4.25;;;1.60;;
73919;SDS011;62266;53.348;-1.496;2023-05-10T12:15:57;4.63;;;1.40;;
73919;SDS011;62266;53.348;-1.496;2023-05-10T12:18:42;2.90;;;1.58;;
73919;SDS011;62266;53.348;-1.496;2023-05-10T12:21:27;3.97;;;1.58;;
73919;SDS011;62266;53.348;-1.496;2023-05-10T12:24:12;3.38;;;1.80;;
73919;SDS011;62266;53.348;-1.496;2023-05-10T12:26:58;1.25;;;1.13;;
73919;SDS011;62266;53.348;-1.496;2023-05-10T12:29:42;1.93;;;0.50;;
73919;SDS011;62266;53.348;-1.496;2023-05-10T12:32:38;0.90;;;0.65;;
73919;SDS011;62266;53.348;-1.496;2023-05-10T12:35:25;0.65;;;0.60;;
73919;SDS011;62266;53.348;-1.496;2023-05-10T12:41:17;0.63;;;0.60;;
73919;SDS011;62266;53.348;-1.496;2023-05-10T12:44:05;0.57;;;0.50;;
73919;SDS011;62266;53.348;-1.496;2023-05-10T12:50:26;0.65;;;0.40;;
73919;SDS011;62266;53.348;-1.496;2023-05-10T12:53:14;1.13;;;0.40;;
73919;SDS011;62266;53.348;-1.496;2023-05-10T12:55:59;1.35;;;0.45;;
73919;SDS011;62266;53.348;-1.496;2023-05-10T12:58:50;1.53;;;0.60;;
73919;SDS011;62266;53.348;-1.496;2023-05-10T13:01:34;1.60;;;0.63;;
73919;SDS011;62266;53.348;-1.496;2023-05-10T13:04:27;1.55;;;0.60;;
73919;SDS011;62266;53.348;-1.496;2023-05-10T13:07:12;0.70;;;0.50;;
73919;SDS011;62266;53.348;-1.496;2023-05-10T13:09:57;0.85;;;0.70;;
73919;SDS011;62266;53.348;-1.496;2023-05-10T13:12:42;1.10;;;0.70;;
73919;SDS011;62266;53.348;-1.496;2023-05-10T13:15:26;1.10;;;0.70;;
73919;SDS011;62266;53.348;-1.496;2023-05-10T13:18:13;1.35;;;0.60;;
73919;SDS011;62266;53.348;-1.496;2023-05-10T13:23:41;1.67;;;1.00;;
73919;SDS011;62266;53.348;-1.496;2023-05-10T13:26:25;2.83;;;1.07;;
73919;SDS011;62266;53.348;-1.496;2023-05-10T13:29:10;3.58;;;0.77;;
73919;SDS011;62266;53.348;-1.496;2023-05-10T13:31:58;1.58;;;1.00;;
73919;SDS011;62266;53.348;-1.496;2023-05-10T13:34:45;1.38;;;1.00;;
73919;SDS011;62266;53.348;-1.496;2023-05-10T13:37:30;1.58;;;0.90;;
73919;SDS011;62266;53.348;-1.496;2023-05-10T13:40:15;1.20;;;0.80;;
73919;SDS011;62266;53.348;-1.496;2023-05-10T13:45:47;1.25;;;1.00;;
73919;SDS011;62266;53.348;-1.496;2023-05-10T13:48:32;1.70;;;0.70;;
73919;SDS011;62266;53.348;-1.496;2023-05-10T13:51:16;1.10;;;0.82;;
73919;SDS011;62266;53.348;-1.496;2023-05-10T13:54:01;1.60;;;0.97;;
73919;SDS011;62266;53.348;-1.496;2023-05-10T13:56:51;2.30;;;0.95;;
73919;SDS011;62266;53.348;-1.496;2023-05-10T13:59:38;1.52;;;1.20;;
73919;SDS011;62266;53.348;-1.496;2023-05-10T14:02:22;1.67;;;1.00;;
73919;SDS011;62266;53.348;-1.496;2023-05-10T14:05:08;2.40;;;1.10;;
73919;SDS011;62266;53.348;-1.496;2023-05-10T14:07:52;1.53;;;0.80;;
73919;SDS011;62266;53.348;-1.496;2023-05-10T14:10:41;1.15;;;0.93;;
73919;SDS011;62266;53.348;-1.496;2023-05-10T14:13:25;0.80;;;0.50;;
73919;SDS011;62266;53.348;-1.496;2023-05-10T14:16:09;0.95;;;0.38;;
73919;SDS011;62266;53.348;-1.496;2023-05-10T14:18:58;1.52;;;1.25;;
73919;SDS011;62266;53.348;-1.496;2023-05-10T14:21:46;1.20;;;0.60;;
73919;SDS011;62266;53.348;-1.496;2023-05-10T14:24:31;0.65;;;0.40;;
73919;SDS011;62266;53.348;-1.496;2023-05-10T14:27:15;0.45;;;0.40;;
73919;SDS011;62266;53.348;-1.496;2023-05-10T14:30:03;1.20;;;0.45;;
73919;SDS011;62266;53.348;-1.496;2023-05-10T14:32:47;0.95;;;0.70;;
73919;SDS011;62266;53.348;-1.496;2023-05-10T14:35:31;0.73;;;0.50;;
73919;SDS011;62266;53.348;-1.496;2023-05-10T14:38:15;0.80;;;0.50;;
73919;SDS011;62266;53.348;-1.496;2023-05-10T14:40:59;2.05;;;0.60;;
73919;SDS011;62266;53.348;-1.496;2023-05-10T14:43:44;0.60;;;0.35;;
73919;SDS011;62266;53.348;-1.496;2023-05-10T14:46:28;1.42;;;0.50;;
73919;SDS011;62266;53.348;-1.496;2023-05-10T14:49:19;0.90;;;0.60;;
73919;SDS011;62266;53.348;-1.496;2023-05-10T14:52:06;1.08;;;0.60;;
73919;SDS011;62266;53.348;-1.496;2023-05-10T14:54:51;1.85;;;0.80;;
73919;SDS011;62266;53.348;-1.496;2023-05-10T14:57:35;4.35;;;1.38;;
73919;SDS011;62266;53.348;-1.496;2023-05-10T15:00:25;1.08;;;0.52;;
73919;SDS011;62266;53.348;-1.496;2023-05-10T15:03:15;1.03;;;0.60;;
73919;SDS011;62266;53.348;-1.496;2023-05-10T15:06:00;2.33;;;1.08;;
73919;SDS011;62266;53.348;-1.496;2023-05-10T15:08:44;1.85;;;1.38;;
73919;SDS011;62266;53.348;-1.496;2023-05-10T15:11:30;1.90;;;1.10;;
73919;SDS011;62266;53.348;-1.496;2023-05-10T15:14:15;0.90;;;0.68;;
73919;SDS011;62266;53.348;-1.496;2023-05-10T15:16:59;0.73;;;0.70;;
73919;SDS011;62266;53.348;-1.496;2023-05-10T15:19:43;0.47;;;0.40;;
73919;SDS011;62266;53.348;-1.496;2023-05-10T15:22:27;1.20;;;0.40;;
73919;SDS011;62266;53.348;-1.496;2023-05-10T15:25:12;0.65;;;0.45;;
73919;SDS011;62266;53.348;-1.496;2023-05-10T15:27:57;0.70;;;0.50;;
73919;SDS011;62266;53.348;-1.496;2023-05-10T15:30:41;1.53;;;0.30;;
73919;SDS011;62266;53.348;-1.496;2023-05-10T15:33:25;1.45;;;0.40;;
73919;SDS011;62266;53.348;-1.496;2023-05-10T15:36:14;0.82;;;0.60;;
73919;SDS011;62266;53.348;-1.496;2023-05-10T15:38:58;0.93;;;0.60;;
73919;SDS011;62266;53.348;-1.496;2023-05-10T15:41:42;1.73;;;0.60;;
73919;SDS011;62266;53.348;-1.496;2023-05-10T15:44:27;2.10;;;0.57;;
73919;SDS011;62266;53.348;-1.496;2023-05-10T15:47:12;2.38;;;0.80;;
73919;SDS011;62266;53.348;-1.496;2023-05-10T15:49:56;2.17;;;0.60;;
73919;SDS011;62266;53.348;-1.496;2023-05-10T15:52:40;1.42;;;0.50;;
73919;SDS011;62266;53.348;-1.496;2023-05-10T15:55:25;1.08;;;0.70;;
73919;SDS011;62266;53.348;-1.496;2023-05-10T15:58:12;1.20;;;0.50;;
73919;SDS011;62266;53.348;-1.496;2023-05-10T16:00:55;3.22;;;1.95;;
73919;SDS011;62266;53.348;-1.496;2023-05-10T16:03:40;0.93;;;0.80;;
73919;SDS011;62266;53.348;-1.496;2023-05-10T16:06:25;1.60;;;1.20;;
73919;SDS011;62266;53.348;-1.496;2023-05-10T16:09:10;2.17;;;0.80;;
73919;SDS011;62266;53.348;-1.496;2023-05-10T16:11:58;0.70;;;0.50;;
73919;SDS011;62266;53.348;-1.496;2023-05-10T16:14:43;1.63;;;0.80;;
73919;SDS011;62266;53.348;-1.496;2023-05-10T16:17:28;1.15;;;0.70;;
73919;SDS011;62266;53.348;-1.496;2023-05-10T16:20:12;1.48;;;1.00;;
73919;SDS011;62266;53.348;-1.496;2023-05-10T16:26:08;1.20;;;0.93;;
73919;SDS011;62266;53.348;-1.496;2023-05-10T16:28:55;0.65;;;0.50;;
73919;SDS011;62266;53.348;-1.496;2023-05-10T16:31:40;0.57;;;0.40;;
73919;SDS011;62266;53.348;-1.496;2023-05-10T16:34:24;1.55;;;0.40;;
73919;SDS011;62266;53.348;-1.496;2023-05-10T16:37:08;0.30;;;0.20;;
73919;SDS011;62266;53.348;-1.496;2023-05-10T16:39:53;1.07;;;0.40;;
73919;SDS011;62266;53.348;-1.496;2023-05-10T16:43:04;1.55;;;0.50;;
73919;SDS011;62266;53.348;-1.496;2023-05-10T16:46:08;1.70;;;0.40;;
73919;SDS011;62266;53.348;-1.496;2023-05-10T16:48:58;1.00;;;0.55;;
73919;SDS011;62266;53.348;-1.496;2023-05-10T16:51:45;0.63;;;0.50;;
73919;SDS011;62266;53.348;-1.496;2023-05-10T16:54:29;0.50;;;0.33;;
73919;SDS011;62266;53.348;-1.496;2023-05-10T16:57:14;0.63;;;0.30;;
73919;SDS011;62266;53.348;-1.496;2023-05-10T16:59:58;1.65;;;0.40;;
73919;SDS011;62266;53.348;-1.496;2023-05-10T17:02:42;0.93;;;0.40;;
73919;SDS011;62266;53.348;-1.496;2023-05-10T17:05:26;1.05;;;0.30;;
73919;SDS011;62266;53.348;-1.496;2023-05-10T17:08:10;0.40;;;0.33;;
73919;SDS011;62266;53.348;-1.496;2023-05-10T17:10:54;1.15;;;0.30;;